Time;durP1;ratioP1;P1;durP2;ratioP2;P2;SDS_P1;SDS_P2;PMS_P1;PMS_P2;Temp;Humidity;BMP_temperature;BMP_pressure;BME280_temperature;BME280_humidity;BME280_pressure;Samples;Min_cycle;Max_cycle;Signal;HPM_P1;HPM_P2
2022/01/27 00:01:27;;;;;;;23.40;16.90;;;;;;;;;;5124418;27;24474;-57
2022/01/27 00:04:11;;;;;;;21.73;15.23;;;;;;;;;;5122371;27;24404;-57
2022/01/27 00:06:38;;;;;;;23.33;16.75;;;;;;;;;;5124673;27;24501;-58
2022/01/27 00:10:13;;;;;;;25.15;17.73;;;;;;;;;;5124263;27;24512;-58
2022/01/27 00:11:58;;;;;;;21.35;15.57;;;;;;;;;;5113280;27;24411;-58
2022/01/27 00:14:23;;;;;;;25.00;17.45;;;;;;;;;;5122343;27;24413;-58
2022/01/27 00:16:55;;;;;;;22.30;16.25;;;;;;;;;;5126858;27;24466;-58
2022/01/27 00:19:21;;;;;;;23.13;16.60;;;;;;;;;;5119256;27;24513;-58
2022/01/27 00:21:46;;;;;;;25.87;17.60;;;;;;;;;;5118930;27;24518;-57
2022/01/27 00:24:11;;;;;;;24.30;16.57;;;;;;;;;;5123618;27;24521;-57
2022/01/27 00:26:36;;;;;;;23.80;16.73;;;;;;;;;;5122426;27;25019;-57
2022/01/27 00:29:02;;;;;;;22.00;16.30;;;;;;;;;;5122099;27;24425;-57
2022/01/27 00:31:27;;;;;;;22.80;16.80;;;;;;;;;;5122203;27;24517;-58
2022/01/27 00:33:52;;;;;;;23.50;17.60;;;;;;;;;;5126582;27;24441;-57
2022/01/27 00:36:17;;;;;;;23.98;16.58;;;;;;;;;;5123148;27;24417;-57
2022/01/27 00:38:43;;;;;;;22.00;16.30;;;;;;;;;;5123382;27;24802;-57
2022/01/27 00:41:08;;;;;;;25.23;17.27;;;;;;;;;;5121800;27;24417;-57
2022/01/27 00:43:33;;;;;;;24.00;16.80;;;;;;;;;;5125102;27;24547;-57
2022/01/27 00:45:59;;;;;;;26.10;17.77;;;;;;;;;;5123271;27;24783;-57
2022/01/27 00:48:24;;;;;;;26.03;17.57;;;;;;;;;;5124722;28;24442;-57
2022/01/27 00:50:55;;;;;;;27.77;19.30;;;;;;;;;;5123329;28;24486;-58
2022/01/27 00:54:06;;;;;;;27.70;18.55;;;;;;;;;;5125539;28;24492;-57
2022/01/27 00:56:37;;;;;;;29.10;19.50;;;;;;;;;;5112404;27;24420;-57
2022/01/27 01:01:45;;;;;;;25.77;18.25;;;;;;;;;;5129057;27;25032;-59
2022/01/27 01:04:11;;;;;;;31.30;20.58;;;;;;;;;;5130958;27;24462;-59
2022/01/27 01:06:42;;;;;;;28.70;20.00;;;;;;;;;;5121876;27;24963;-58
2022/01/27 01:12:27;;;;;;;27.75;19.30;;;;;;;;;;5123558;27;24663;-58
2022/01/27 01:14:46;;;;;;;26.48;18.33;;;;;;;;;;5124421;27;24407;-59
2022/01/27 01:19:59;;;;;;;24.88;18.20;;;;;;;;;;5128537;27;24436;-58
2022/01/27 01:30:49;;;;;;;24.40;17.37;;;;;;;;;;5121515;27;24411;-58
2022/01/27 01:33:21;;;;;;;23.17;16.60;;;;;;;;;;5116076;27;24961;-58
2022/01/27 01:35:48;;;;;;;22.90;16.73;;;;;;;;;;5125528;27;24421;-57
2022/01/27 01:38:15;;;;;;;21.90;16.13;;;;;;;;;;5124908;27;24436;-57
2022/01/27 01:40:40;;;;;;;22.90;16.30;;;;;;;;;;5122013;27;24437;-58
2022/01/27 01:43:05;;;;;;;23.00;16.40;;;;;;;;;;5129652;27;24448;-58
2022/01/27 01:45:33;;;;;;;23.95;16.15;;;;;;;;;;5118952;27;24939;-57
2022/01/27 01:47:58;;;;;;;23.08;15.27;;;;;;;;;;5129520;27;24397;-57
2022/01/27 01:50:23;;;;;;;22.77;15.70;;;;;;;;;;5121128;27;24505;-57
2022/01/27 01:52:50;;;;;;;22.70;15.05;;;;;;;;;;5129098;27;24416;-58
2022/01/27 01:55:18;;;;;;;23.67;15.30;;;;;;;;;;5126088;27;24413;-58
2022/01/27 01:57:43;;;;;;;20.08;13.70;;;;;;;;;;5129559;27;24424;-57
2022/01/27 02:00:09;;;;;;;23.27;15.90;;;;;;;;;;5124119;27;24484;-57
2022/01/27 02:02:34;;;;;;;21.17;15.40;;;;;;;;;;5122744;27;25081;-57
2022/01/27 02:04:59;;;;;;;19.13;14.77;;;;;;;;;;5128353;27;24424;-57
2022/01/27 02:07:52;;;;;;;22.53;14.97;;;;;;;;;;5121699;27;24485;-57
2022/01/27 02:17:58;;;;;;;20.00;14.70;;;;;;;;;;5124753;27;24493;-58
2022/01/27 02:18:30;;;;;;;20.15;13.80;;;;;;;;;;5122885;27;24417;-59
2022/01/27 02:20:55;;;;;;;20.10;14.55;;;;;;;;;;5124206;27;24413;-57
2022/01/27 02:23:20;;;;;;;16.17;12.87;;;;;;;;;;5117544;27;24429;-57
2022/01/27 02:25:46;;;;;;;20.63;14.27;;;;;;;;;;5123418;27;24416;-57
2022/01/27 02:28:11;;;;;;;20.67;14.27;;;;;;;;;;5123010;27;24822;-58
2022/01/27 02:30:36;;;;;;;19.60;13.20;;;;;;;;;;5128163;27;24444;-57
2022/01/27 02:33:01;;;;;;;18.58;13.90;;;;;;;;;;5118083;27;24951;-57
2022/01/27 02:35:29;;;;;;;18.90;13.60;;;;;;;;;;5127315;27;24431;-58
2022/01/27 02:37:54;;;;;;;19.85;13.85;;;;;;;;;;5125813;27;24803;-58
2022/01/27 02:40:25;;;;;;;18.02;12.68;;;;;;;;;;5121684;27;24410;-58
2022/01/27 02:42:51;;;;;;;17.48;13.50;;;;;;;;;;5116945;27;24954;-58
2022/01/27 02:45:39;;;;;;;19.17;13.50;;;;;;;;;;5118736;27;24431;-57
2022/01/27 02:48:04;;;;;;;19.45;13.82;;;;;;;;;;5117921;27;24517;-58
2022/01/27 02:50:29;;;;;;;18.23;13.10;;;;;;;;;;5123113;27;24627;-58
2022/01/27 02:52:55;;;;;;;18.40;13.70;;;;;;;;;;5118745;27;24427;-58
2022/01/27 02:55:20;;;;;;;18.05;13.27;;;;;;;;;;5126226;27;25000;-57
2022/01/27 02:57:45;;;;;;;17.85;13.20;;;;;;;;;;5124307;27;25369;-57
2022/01/27 03:00:10;;;;;;;20.75;14.63;;;;;;;;;;5123922;27;24501;-58
2022/01/27 03:02:36;;;;;;;18.50;13.10;;;;;;;;;;5116574;27;24486;-58
2022/01/27 03:05:02;;;;;;;19.90;13.45;;;;;;;;;;5127329;27;24409;-58
2022/01/27 03:07:27;;;;;;;19.53;13.43;;;;;;;;;;5123087;27;24477;-58
2022/01/27 03:09:54;;;;;;;18.53;13.63;;;;;;;;;;5121802;27;24779;-58
2022/01/27 03:12:20;;;;;;;19.25;14.52;;;;;;;;;;5121460;27;24421;-59
2022/01/27 03:14:45;;;;;;;17.80;13.13;;;;;;;;;;5119377;27;25093;-58
2022/01/27 03:17:10;;;;;;;18.98;13.93;;;;;;;;;;5124118;27;24409;-59
2022/01/27 03:19:37;;;;;;;17.30;13.23;;;;;;;;;;5118173;27;24438;-58
2022/01/27 03:22:03;;;;;;;18.50;13.10;;;;;;;;;;5121717;27;24923;-59
2022/01/27 03:24:28;;;;;;;18.48;13.93;;;;;;;;;;5123388;27;24939;-59
2022/01/27 03:26:55;;;;;;;18.23;12.77;;;;;;;;;;5123448;27;24424;-59
2022/01/27 03:29:20;;;;;;;17.73;13.80;;;;;;;;;;5119652;27;24457;-58
2022/01/27 03:31:46;;;;;;;17.83;12.70;;;;;;;;;;5123204;27;25304;-59
2022/01/27 03:34:11;;;;;;;17.97;13.07;;;;;;;;;;5122513;27;24404;-58
2022/01/27 03:36:37;;;;;;;21.33;14.70;;;;;;;;;;5123249;27;24526;-58
2022/01/27 03:39:02;;;;;;;22.50;14.50;;;;;;;;;;5119292;27;24456;-58
2022/01/27 03:41:32;;;;;;;18.47;13.67;;;;;;;;;;5117476;27;24432;-58
2022/01/27 03:43:57;;;;;;;22.15;15.30;;;;;;;;;;5124208;27;24424;-58
2022/01/27 03:46:22;;;;;;;20.92;15.25;;;;;;;;;;5120681;27;24421;-57
2022/01/27 03:48:47;;;;;;;23.63;15.75;;;;;;;;;;5122053;27;24525;-58
2022/01/27 03:51:13;;;;;;;20.23;14.13;;;;;;;;;;5127619;27;24764;-60
2022/01/27 03:53:38;;;;;;;18.20;13.70;;;;;;;;;;5127984;27;24405;-58
2022/01/27 03:56:03;;;;;;;19.75;14.02;;;;;;;;;;5118231;27;24398;-58
2022/01/27 03:58:28;;;;;;;19.70;15.27;;;;;;;;;;5121811;27;24415;-58
2022/01/27 04:00:53;;;;;;;22.53;15.80;;;;;;;;;;5126724;27;24411;-59
2022/01/27 04:03:21;;;;;;;20.80;15.13;;;;;;;;;;5127714;27;24509;-59
2022/01/27 04:05:52;;;;;;;19.35;14.70;;;;;;;;;;5121431;27;25288;-58
2022/01/27 04:08:19;;;;;;;24.60;15.73;;;;;;;;;;5119479;27;24436;-58
2022/01/27 04:10:44;;;;;;;21.48;15.43;;;;;;;;;;5125697;27;24996;-58
2022/01/27 04:13:10;;;;;;;22.43;15.40;;;;;;;;;;5116139;27;24417;-58
2022/01/27 04:15:36;;;;;;;18.87;13.63;;;;;;;;;;5124651;27;24467;-58
2022/01/27 04:18:01;;;;;;;21.33;14.85;;;;;;;;;;5124685;27;24806;-58
2022/01/27 04:20:26;;;;;;;19.17;14.10;;;;;;;;;;5120531;27;24417;-58
2022/01/27 04:22:51;;;;;;;18.92;13.38;;;;;;;;;;5120242;27;24401;-59
2022/01/27 04:25:17;;;;;;;20.40;14.10;;;;;;;;;;5121842;27;24429;-59
2022/01/27 04:27:46;;;;;;;21.10;14.37;;;;;;;;;;5127233;27;24454;-58
2022/01/27 04:30:16;;;;;;;20.63;14.98;;;;;;;;;;5126515;27;24425;-59
2022/01/27 04:32:47;;;;;;;19.20;13.80;;;;;;;;;;5126277;27;24448;-59
2022/01/27 04:35:16;;;;;;;17.58;13.23;;;;;;;;;;5119737;27;24521;-59
2022/01/27 04:37:53;;;;;;;22.92;14.15;;;;;;;;;;5119022;27;24519;-57
2022/01/27 04:40:25;;;;;;;18.37;13.20;;;;;;;;;;5125137;27;24409;-57
2022/01/27 04:43:05;;;;;;;19.10;13.60;;;;;;;;;;5126785;27;24413;-58
2022/01/27 04:45:38;;;;;;;19.13;13.15;;;;;;;;;;5125866;27;24465;-57
2022/01/27 04:48:11;;;;;;;20.90;14.75;;;;;;;;;;5124101;27;24466;-58
2022/01/27 04:50:36;;;;;;;20.90;13.95;;;;;;;;;;5116888;27;24405;-58
2022/01/27 04:53:05;;;;;;;19.70;13.60;;;;;;;;;;5127126;28;24760;-58
2022/01/27 04:55:30;;;;;;;18.77;13.35;;;;;;;;;;5125072;28;24820;-58
2022/01/27 04:58:07;;;;;;;20.13;13.80;;;;;;;;;;5122696;28;25280;-58
2022/01/27 05:00:32;;;;;;;18.27;13.60;;;;;;;;;;5114509;28;24406;-58
2022/01/27 05:03:00;;;;;;;20.03;13.70;;;;;;;;;;5118140;28;24462;-58
2022/01/27 05:05:25;;;;;;;19.35;13.88;;;;;;;;;;5126148;28;24478;-59
2022/01/27 05:07:57;;;;;;;19.20;13.10;;;;;;;;;;5126326;28;24697;-58
2022/01/27 05:10:25;;;;;;;18.20;13.18;;;;;;;;;;5115151;28;24421;-58
2022/01/27 05:12:53;;;;;;;17.23;12.63;;;;;;;;;;5126658;28;25009;-58
2022/01/27 05:15:19;;;;;;;20.90;13.77;;;;;;;;;;5125849;28;24597;-58
2022/01/27 05:17:44;;;;;;;19.35;13.10;;;;;;;;;;5124270;28;25017;-58
2022/01/27 05:20:09;;;;;;;20.33;13.40;;;;;;;;;;5121148;28;24405;-58
2022/01/27 05:22:35;;;;;;;15.68;12.52;;;;;;;;;;5117591;28;24413;-58
2022/01/27 05:25:00;;;;;;;18.30;13.10;;;;;;;;;;5126180;28;24962;-58
2022/01/27 05:27:25;;;;;;;17.42;12.27;;;;;;;;;;5121930;28;24406;-58
2022/01/27 05:29:52;;;;;;;16.77;12.37;;;;;;;;;;5114438;28;24465;-58
2022/01/27 05:32:17;;;;;;;17.93;13.50;;;;;;;;;;5120640;28;24558;-58
2022/01/27 05:34:42;;;;;;;17.65;12.63;;;;;;;;;;5124709;28;24834;-58
2022/01/27 05:37:07;;;;;;;17.63;13.82;;;;;;;;;;5124951;28;24462;-58
2022/01/27 05:39:32;;;;;;;17.33;12.80;;;;;;;;;;5124267;28;24440;-58
2022/01/27 05:41:58;;;;;;;15.47;12.10;;;;;;;;;;5128548;27;24417;-59
2022/01/27 05:44:23;;;;;;;16.23;12.57;;;;;;;;;;5125647;27;24409;-59
2022/01/27 05:46:48;;;;;;;15.65;11.70;;;;;;;;;;5125354;27;24427;-59
2022/01/27 05:49:13;;;;;;;14.00;11.80;;;;;;;;;;5129109;27;25031;-59
2022/01/27 05:51:38;;;;;;;15.97;12.57;;;;;;;;;;5123944;27;24416;-59
2022/01/27 05:54:04;;;;;;;16.17;12.90;;;;;;;;;;5126885;27;24405;-58
2022/01/27 05:56:29;;;;;;;16.43;12.50;;;;;;;;;;5126253;27;24424;-58
2022/01/27 05:58:54;;;;;;;14.80;11.93;;;;;;;;;;5124768;27;24452;-58
2022/01/27 06:01:19;;;;;;;14.27;12.07;;;;;;;;;;5118922;27;24474;-59
2022/01/27 06:03:44;;;;;;;15.63;12.77;;;;;;;;;;5128190;27;24409;-58
2022/01/27 06:06:09;;;;;;;13.00;11.20;;;;;;;;;;5129117;27;24417;-57
2022/01/27 06:08:34;;;;;;;16.02;13.00;;;;;;;;;;5128279;27;24496;-57
2022/01/27 06:11:00;;;;;;;15.18;12.10;;;;;;;;;;5128008;27;24420;-58
2022/01/27 06:13:25;;;;;;;13.70;11.60;;;;;;;;;;5127194;27;25227;-58
2022/01/27 06:15:50;;;;;;;14.95;12.07;;;;;;;;;;5117286;27;24414;-59
2022/01/27 06:18:15;;;;;;;14.10;12.00;;;;;;;;;;5120510;27;24552;-58
2022/01/27 06:20:43;;;;;;;13.93;11.70;;;;;;;;;;5119373;27;24510;-59
2022/01/27 06:23:09;;;;;;;14.02;12.20;;;;;;;;;;5118470;27;25011;-58
2022/01/27 06:25:34;;;;;;;14.63;12.20;;;;;;;;;;5123000;27;24417;-58
2022/01/27 06:28:00;;;;;;;13.60;11.70;;;;;;;;;;5121847;27;24811;-58
2022/01/27 06:30:25;;;;;;;13.10;11.70;;;;;;;;;;5125275;27;25220;-57
2022/01/27 06:32:50;;;;;;;13.37;11.47;;;;;;;;;;5123640;27;24435;-58
2022/01/27 06:35:15;;;;;;;13.15;11.75;;;;;;;;;;5124406;27;24417;-57
2022/01/27 06:37:42;;;;;;;13.00;11.30;;;;;;;;;;5123105;27;24437;-58
2022/01/27 06:40:10;;;;;;;13.13;11.13;;;;;;;;;;5122000;27;24506;-58
2022/01/27 06:42:35;;;;;;;14.00;12.00;;;;;;;;;;5125509;27;24487;-59
2022/01/27 06:45:00;;;;;;;12.00;10.50;;;;;;;;;;5123953;27;24457;-58
2022/01/27 06:47:25;;;;;;;13.87;11.80;;;;;;;;;;5122273;27;24951;-58
2022/01/27 06:49:50;;;;;;;14.23;11.90;;;;;;;;;;5117614;27;24499;-58
2022/01/27 06:52:16;;;;;;;13.02;11.63;;;;;;;;;;5119122;27;24767;-59
2022/01/27 06:54:41;;;;;;;13.30;11.90;;;;;;;;;;5120400;27;24974;-59
2022/01/27 06:57:06;;;;;;;13.23;11.93;;;;;;;;;;5120985;27;24505;-59
2022/01/27 06:59:32;;;;;;;12.80;11.50;;;;;;;;;;5123438;27;24488;-59
2022/01/27 07:01:57;;;;;;;13.10;11.70;;;;;;;;;;5119800;27;24405;-58
2022/01/27 07:04:22;;;;;;;12.93;11.10;;;;;;;;;;5125044;27;24936;-58
2022/01/27 07:06:48;;;;;;;13.63;11.67;;;;;;;;;;5123694;27;24920;-58
2022/01/27 07:09:14;;;;;;;14.20;12.23;;;;;;;;;;5123473;27;25066;-53
2022/01/27 07:11:39;;;;;;;13.10;11.70;;;;;;;;;;5116138;27;24449;-53
2022/01/27 07:14:04;;;;;;;15.00;11.95;;;;;;;;;;5128386;27;24763;-53
2022/01/27 07:16:29;;;;;;;13.97;12.30;;;;;;;;;;5127764;27;24466;-53
2022/01/27 07:18:55;;;;;;;15.40;12.30;;;;;;;;;;5117014;27;24848;-54
2022/01/27 07:21:20;;;;;;;12.32;11.02;;;;;;;;;;5123866;27;24755;-54
2022/01/27 07:23:46;;;;;;;13.63;12.23;;;;;;;;;;5127305;27;24561;-55
2022/01/27 07:26:11;;;;;;;13.50;11.55;;;;;;;;;;5126319;27;24461;-60
2022/01/27 07:28:37;;;;;;;12.90;11.60;;;;;;;;;;5127185;27;25266;-59
2022/01/27 07:31:02;;;;;;;13.53;11.67;;;;;;;;;;5127537;27;24942;-59
2022/01/27 07:33:27;;;;;;;12.97;11.57;;;;;;;;;;5128257;27;24828;-58
2022/01/27 07:35:52;;;;;;;14.52;11.63;;;;;;;;;;5121247;27;24485;-59
2022/01/27 07:38:17;;;;;;;15.67;13.50;;;;;;;;;;5121140;27;24544;-59
2022/01/27 07:40:43;;;;;;;13.30;11.90;;;;;;;;;;5127621;27;24413;-59
2022/01/27 07:43:11;;;;;;;14.32;12.82;;;;;;;;;;5126475;27;24504;-59
2022/01/27 07:45:36;;;;;;;13.50;11.93;;;;;;;;;;5127508;27;24497;-59
2022/01/27 07:48:01;;;;;;;14.97;13.37;;;;;;;;;;5126989;27;25052;-59
2022/01/27 07:50:29;;;;;;;13.77;12.37;;;;;;;;;;5127221;27;24464;-59
2022/01/27 07:52:55;;;;;;;13.52;12.13;;;;;;;;;;5125657;27;24413;-59
2022/01/27 07:55:20;;;;;;;13.40;12.00;;;;;;;;;;5118745;27;24510;-59
2022/01/27 07:57:45;;;;;;;14.05;12.55;;;;;;;;;;5126025;27;24943;-59
2022/01/27 08:00:11;;;;;;;13.00;11.70;;;;;;;;;;5123304;27;25053;-59
2022/01/27 08:02:36;;;;;;;13.50;12.10;;;;;;;;;;5125556;27;24477;-57
2022/01/27 08:05:01;;;;;;;13.40;12.00;;;;;;;;;;5124620;27;24521;-59
2022/01/27 08:07:26;;;;;;;13.13;11.73;;;;;;;;;;5122828;27;24426;-58
2022/01/27 08:09:51;;;;;;;13.18;11.77;;;;;;;;;;5126091;27;24532;-58
2022/01/27 08:12:17;;;;;;;15.48;12.70;;;;;;;;;;5121956;27;24444;-59
2022/01/27 08:14:42;;;;;;;12.93;11.52;;;;;;;;;;5125195;27;24442;-58
2022/01/27 08:17:08;;;;;;;12.80;11.50;;;;;;;;;;5125703;27;24429;-58
2022/01/27 08:19:33;;;;;;;13.83;12.37;;;;;;;;;;5123008;27;24417;-58
2022/01/27 08:21:58;;;;;;;17.23;14.10;;;;;;;;;;5126207;27;24996;-59
2022/01/27 08:24:23;;;;;;;15.27;13.77;;;;;;;;;;5127359;27;24438;-58
2022/01/27 08:26:50;;;;;;;15.15;13.55;;;;;;;;;;5127523;27;24389;-58
2022/01/27 08:29:23;;;;;;;13.50;12.10;;;;;;;;;;5124160;27;24993;-59
2022/01/27 08:32:01;;;;;;;14.07;12.40;;;;;;;;;;5120758;27;24424;-58
2022/01/27 08:34:35;;;;;;;15.48;13.10;;;;;;;;;;5121748;27;24763;-58
2022/01/27 08:37:02;;;;;;;15.63;13.43;;;;;;;;;;5120758;27;24486;-58
2022/01/27 08:39:27;;;;;;;14.15;12.75;;;;;;;;;;5117291;27;24460;-58
2022/01/27 08:41:52;;;;;;;12.85;11.45;;;;;;;;;;5124116;27;24444;-58
2022/01/27 08:44:18;;;;;;;14.60;13.10;;;;;;;;;;5123006;27;24420;-58
2022/01/27 08:46:43;;;;;;;13.43;12.10;;;;;;;;;;5123866;27;24764;-58
2022/01/27 08:49:09;;;;;;;14.70;12.40;;;;;;;;;;5125246;27;24436;-59
2022/01/27 08:51:34;;;;;;;14.00;12.03;;;;;;;;;;5125280;28;25234;-58
2022/01/27 08:53:59;;;;;;;11.77;10.57;;;;;;;;;;5124465;27;24465;-58
2022/01/27 08:56:24;;;;;;;14.07;12.67;;;;;;;;;;5124349;28;24417;-59
2022/01/27 08:58:49;;;;;;;13.75;11.48;;;;;;;;;;5125017;28;24583;-59
2022/01/27 09:01:15;;;;;;;14.32;12.93;;;;;;;;;;5124839;28;24420;-58
2022/01/27 09:03:40;;;;;;;15.07;12.90;;;;;;;;;;5125206;28;25018;-59
2022/01/27 09:06:05;;;;;;;15.90;14.20;;;;;;;;;;5125073;28;24420;-58
2022/01/27 09:08:30;;;;;;;14.43;12.70;;;;;;;;;;5125195;28;25087;-58
2022/01/27 09:10:56;;;;;;;14.70;13.10;;;;;;;;;;5124811;28;24823;-59
2022/01/27 09:13:21;;;;;;;14.17;12.60;;;;;;;;;;5124621;28;24479;-59
2022/01/27 09:15:49;;;;;;;13.00;11.60;;;;;;;;;;5126360;27;24428;-59
2022/01/27 09:18:14;;;;;;;13.35;11.95;;;;;;;;;;5129192;27;24469;-59
2022/01/27 09:20:40;;;;;;;15.70;14.00;;;;;;;;;;5128181;27;24731;-59
2022/01/27 09:23:12;;;;;;;15.00;13.40;;;;;;;;;;5129400;27;24413;-60
2022/01/27 09:25:42;;;;;;;14.65;12.38;;;;;;;;;;5129149;27;24425;-59
2022/01/27 09:28:07;;;;;;;14.70;11.75;;;;;;;;;;5128116;27;24489;-60
2022/01/27 09:30:33;;;;;;;14.83;12.30;;;;;;;;;;5117509;27;24874;-59
2022/01/27 09:32:58;;;;;;;13.60;11.60;;;;;;;;;;5129985;27;24587;-59
2022/01/27 09:35:23;;;;;;;12.70;11.30;;;;;;;;;;5128420;27;24436;-59
2022/01/27 09:37:48;;;;;;;13.27;11.10;;;;;;;;;;5128196;27;24437;-61
2022/01/27 09:40:15;;;;;;;13.77;12.10;;;;;;;;;;5109236;27;24421;-59
2022/01/27 09:42:41;;;;;;;14.20;11.93;;;;;;;;;;5108641;28;24397;-60
2022/01/27 09:45:08;;;;;;;12.48;10.90;;;;;;;;;;5128962;27;24878;-60
2022/01/27 09:47:35;;;;;;;13.13;10.67;;;;;;;;;;5128842;27;24561;-60
2022/01/27 09:50:09;;;;;;;14.05;11.00;;;;;;;;;;5126112;27;24433;-59
2022/01/27 09:52:34;;;;;;;13.30;11.10;;;;;;;;;;5120928;27;24467;-59
2022/01/27 09:54:59;;;;;;;11.50;10.30;;;;;;;;;;5129848;27;24401;-59
2022/01/27 09:57:25;;;;;;;14.80;11.03;;;;;;;;;;5126697;27;24377;-57
2022/01/27 09:59:50;;;;;;;13.47;11.40;;;;;;;;;;5120333;27;24412;-57
2022/01/27 10:02:21;;;;;;;14.10;11.27;;;;;;;;;;5128685;27;24404;-60
2022/01/27 10:04:47;;;;;;;13.48;11.07;;;;;;;;;;5129688;27;24942;-60
2022/01/27 10:07:15;;;;;;;13.90;11.27;;;;;;;;;;5128144;27;25054;-59
2022/01/27 10:09:53;;;;;;;12.90;10.90;;;;;;;;;;5128904;27;24425;-59
2022/01/27 10:12:23;;;;;;;14.40;11.70;;;;;;;;;;5128129;27;24424;-59
2022/01/27 10:14:56;;;;;;;13.27;10.80;;;;;;;;;;5129722;27;24993;-58
2022/01/27 10:17:21;;;;;;;15.88;12.35;;;;;;;;;;5121716;27;24437;-58
2022/01/27 10:19:52;;;;;;;16.17;12.30;;;;;;;;;;5125255;27;24443;-58
2022/01/27 10:22:17;;;;;;;16.30;13.17;;;;;;;;;;5124511;27;24424;-58
2022/01/27 10:24:43;;;;;;;14.50;11.80;;;;;;;;;;5128783;27;24409;-59
2022/01/27 10:27:17;;;;;;;14.40;11.70;;;;;;;;;;5127504;27;24450;-59
2022/01/27 10:30:35;;;;;;;17.45;12.60;;;;;;;;;;5128521;27;24860;-59
2022/01/27 10:32:40;;;;;;;15.27;12.32;;;;;;;;;;5126365;27;24433;-59
2022/01/27 10:35:06;;;;;;;17.03;13.13;;;;;;;;;;5128524;27;25254;-58
2022/01/27 10:37:50;;;;;;;18.13;13.73;;;;;;;;;;5126850;27;24463;-58
2022/01/27 10:40:22;;;;;;;15.63;12.82;;;;;;;;;;5128944;27;24393;-59
2022/01/27 10:43:02;;;;;;;16.38;12.20;;;;;;;;;;5129061;27;24396;-57
2022/01/27 10:45:28;;;;;;;16.80;12.52;;;;;;;;;;5129221;27;24405;-58
2022/01/27 10:48:05;;;;;;;17.07;12.30;;;;;;;;;;5128993;27;24434;-58
2022/01/27 10:50:31;;;;;;;18.93;13.60;;;;;;;;;;5129321;27;24454;-57
2022/01/27 10:53:03;;;;;;;17.10;12.10;;;;;;;;;;5128611;27;24386;-58
2022/01/27 10:55:28;;;;;;;17.15;12.82;;;;;;;;;;5129090;27;24941;-58
2022/01/27 10:57:53;;;;;;;14.50;12.20;;;;;;;;;;5129174;27;24385;-58
2022/01/27 11:00:19;;;;;;;16.80;12.37;;;;;;;;;;5128619;27;24405;-58
2022/01/27 11:02:50;;;;;;;16.42;12.95;;;;;;;;;;5128671;27;25240;-58
2022/01/27 11:05:17;;;;;;;16.70;12.73;;;;;;;;;;5128850;27;24393;-58
2022/01/27 11:07:42;;;;;;;17.45;12.20;;;;;;;;;;5128470;27;24458;-58
2022/01/27 11:10:07;;;;;;;17.10;12.20;;;;;;;;;;5128940;27;24466;-57
2022/01/27 11:12:32;;;;;;;17.07;12.53;;;;;;;;;;5128642;27;24383;-57
2022/01/27 11:14:58;;;;;;;15.90;12.80;;;;;;;;;;5128761;27;24957;-58
2022/01/27 11:17:29;;;;;;;16.40;12.83;;;;;;;;;;5128586;27;24389;-58
2022/01/27 11:20:17;;;;;;;14.53;11.73;;;;;;;;;;5127789;27;24500;-58
2022/01/27 11:22:58;;;;;;;13.02;10.40;;;;;;;;;;5127963;27;24405;-58
2022/01/27 11:27:58;;;;;;;15.15;12.25;;;;;;;;;;5128650;27;24397;-58
2022/01/27 11:30:42;;;;;;;12.38;10.45;;;;;;;;;;5128215;27;24424;-57
2022/01/27 11:33:12;;;;;;;15.00;12.38;;;;;;;;;;5128098;27;24403;-57
2022/01/27 11:35:39;;;;;;;14.40;11.40;;;;;;;;;;5127645;27;24417;-61
2022/01/27 11:38:05;;;;;;;13.77;11.40;;;;;;;;;;5127722;27;25065;-62
2022/01/27 11:40:36;;;;;;;16.80;12.38;;;;;;;;;;5128136;27;24389;-59
2022/01/27 11:43:03;;;;;;;14.75;12.70;;;;;;;;;;5127635;27;24413;-59
2022/01/27 11:45:31;;;;;;;12.95;10.38;;;;;;;;;;5127983;27;24657;-59
2022/01/27 11:47:59;;;;;;;14.18;11.20;;;;;;;;;;5127927;27;25172;-58
2022/01/27 11:50:36;;;;;;;14.13;10.93;;;;;;;;;;5127991;27;24864;-59
2022/01/27 11:53:08;;;;;;;15.60;12.68;;;;;;;;;;5127370;27;24390;-59
2022/01/27 11:55:33;;;;;;;13.60;11.60;;;;;;;;;;5127825;27;24385;-58
2022/01/27 11:58:00;;;;;;;13.93;12.43;;;;;;;;;;5128021;27;24400;-58
2022/01/27 12:00:26;;;;;;;15.48;12.00;;;;;;;;;;5127617;27;24485;-58
2022/01/27 12:03:00;;;;;;;13.88;11.35;;;;;;;;;;5127055;27;24443;-59
2022/01/27 12:05:26;;;;;;;14.52;11.70;;;;;;;;;;5127473;27;24401;-58
2022/01/27 12:08:10;;;;;;;15.27;12.57;;;;;;;;;;5127774;27;24416;-58
2022/01/27 12:10:39;;;;;;;14.20;12.15;;;;;;;;;;5127099;27;24445;-59
2022/01/27 12:13:23;;;;;;;15.57;13.02;;;;;;;;;;5127120;27;24492;-58
2022/01/27 12:16:10;;;;;;;13.55;10.82;;;;;;;;;;5127300;27;24922;-59
2022/01/27 12:18:36;;;;;;;16.27;12.20;;;;;;;;;;5127236;27;24419;-58
2022/01/27 12:21:20;;;;;;;15.07;11.80;;;;;;;;;;5127020;27;24759;-58
2022/01/27 12:24:06;;;;;;;14.00;11.40;;;;;;;;;;5127171;27;24534;-58
2022/01/27 12:26:44;;;;;;;16.65;12.07;;;;;;;;;;5109189;27;24397;-59
2022/01/27 12:29:09;;;;;;;15.60;11.60;;;;;;;;;;5127266;27;24508;-58
2022/01/27 12:31:37;;;;;;;14.37;12.50;;;;;;;;;;5126547;27;24903;-58
2022/01/27 12:34:02;;;;;;;13.52;11.60;;;;;;;;;;5126858;27;24417;-58
2022/01/27 12:36:28;;;;;;;14.43;11.10;;;;;;;;;;5127280;27;24400;-59
2022/01/27 12:38:53;;;;;;;13.88;11.05;;;;;;;;;;5126861;27;25249;-60
2022/01/27 12:41:18;;;;;;;15.00;12.00;;;;;;;;;;5126030;27;24428;-59
2022/01/27 12:43:46;;;;;;;16.43;13.20;;;;;;;;;;5127037;27;24983;-59
2022/01/27 12:46:11;;;;;;;16.27;12.73;;;;;;;;;;5127242;27;24816;-59
2022/01/27 12:48:42;;;;;;;13.70;11.23;;;;;;;;;;5126632;27;24958;-59
2022/01/27 12:51:08;;;;;;;14.85;11.73;;;;;;;;;;5126244;27;24624;-59
2022/01/27 12:53:34;;;;;;;12.43;11.13;;;;;;;;;;5126914;27;24775;-59
2022/01/27 12:56:05;;;;;;;14.02;12.10;;;;;;;;;;5126825;28;24373;-59
2022/01/27 12:58:31;;;;;;;13.85;12.13;;;;;;;;;;5127166;28;24377;-59
2022/01/27 13:00:56;;;;;;;17.38;11.90;;;;;;;;;;5125454;28;24660;-59
2022/01/27 13:03:22;;;;;;;14.15;11.80;;;;;;;;;;5126766;28;24392;-59
2022/01/27 13:05:49;;;;;;;14.90;11.63;;;;;;;;;;5126991;27;24396;-59
2022/01/27 13:08:15;;;;;;;14.98;12.15;;;;;;;;;;5126278;27;24523;-59
2022/01/27 13:10:55;;;;;;;15.07;11.95;;;;;;;;;;5126504;27;24444;-57
2022/01/27 13:13:31;;;;;;;15.75;11.75;;;;;;;;;;5126931;27;24424;-59
2022/01/27 13:16:01;;;;;;;15.38;12.07;;;;;;;;;;5126314;27;24396;-57
2022/01/27 13:18:32;;;;;;;14.63;12.25;;;;;;;;;;5126837;27;24389;-57
2022/01/27 13:20:59;;;;;;;15.00;11.97;;;;;;;;;;5125979;27;24570;-58
2022/01/27 13:23:30;;;;;;;13.50;11.50;;;;;;;;;;5126851;27;24392;-58
2022/01/27 13:25:58;;;;;;;14.88;10.73;;;;;;;;;;5126024;27;24413;-57
2022/01/27 13:28:27;;;;;;;14.60;10.95;;;;;;;;;;5126762;27;24385;-57
2022/01/27 13:30:54;;;;;;;13.97;11.23;;;;;;;;;;5126688;27;24841;-58
2022/01/27 13:33:21;;;;;;;12.68;10.50;;;;;;;;;;5126562;27;24963;-59
2022/01/27 13:35:47;;;;;;;13.05;10.00;;;;;;;;;;5126621;27;24846;-58
2022/01/27 13:38:21;;;;;;;12.23;10.43;;;;;;;;;;5126241;27;25052;-58
2022/01/27 13:41:16;;;;;;;12.25;9.90;;;;;;;;;;5125997;27;24828;-58
2022/01/27 13:43:42;;;;;;;12.13;9.23;;;;;;;;;;5126420;28;24492;-58
2022/01/27 13:46:08;;;;;;;12.20;9.70;;;;;;;;;;5126354;28;24814;-58
2022/01/27 13:48:43;;;;;;;12.35;9.88;;;;;;;;;;5126154;28;25116;-58
2022/01/27 13:51:16;;;;;;;11.15;9.20;;;;;;;;;;5125983;28;24442;-58
2022/01/27 13:53:55;;;;;;;12.27;9.35;;;;;;;;;;5126325;28;24426;-58
2022/01/27 13:56:20;;;;;;;11.85;9.13;;;;;;;;;;5127963;28;24520;-59
2022/01/27 13:59:00;;;;;;;10.30;8.90;;;;;;;;;;5126926;28;24435;-59
2022/01/27 14:01:25;;;;;;;10.20;9.10;;;;;;;;;;5126403;27;24735;-58
2022/01/27 14:03:50;;;;;;;10.30;9.30;;;;;;;;;;5129199;27;25262;-58
2022/01/27 14:06:15;;;;;;;9.93;8.93;;;;;;;;;;5129483;27;24404;-58
2022/01/27 14:08:44;;;;;;;9.60;8.13;;;;;;;;;;5129422;27;24492;-59
2022/01/27 14:11:11;;;;;;;11.57;9.63;;;;;;;;;;5129458;27;24534;-58
2022/01/27 14:13:36;;;;;;;10.02;8.20;;;;;;;;;;5129598;27;24588;-59
2022/01/27 14:16:02;;;;;;;10.13;8.50;;;;;;;;;;5129449;27;24915;-58
2022/01/27 14:18:28;;;;;;;9.65;8.02;;;;;;;;;;5129857;27;24404;-59
2022/01/27 14:20:54;;;;;;;9.63;8.20;;;;;;;;;;5129233;27;24419;-59
2022/01/27 14:23:30;;;;;;;9.40;7.65;;;;;;;;;;5129086;27;24404;-59
2022/01/27 14:25:59;;;;;;;10.37;7.73;;;;;;;;;;5129399;27;24397;-59
2022/01/27 14:28:24;;;;;;;9.25;8.25;;;;;;;;;;5129304;27;24381;-59
2022/01/27 14:30:50;;;;;;;8.10;7.30;;;;;;;;;;5129200;27;24470;-58
2022/01/27 14:33:15;;;;;;;7.32;6.53;;;;;;;;;;5128508;27;24385;-60
2022/01/27 14:35:42;;;;;;;7.70;6.50;;;;;;;;;;5129473;27;24393;-58
2022/01/27 14:38:07;;;;;;;8.77;7.50;;;;;;;;;;5129163;27;24455;-58
2022/01/27 14:40:33;;;;;;;8.40;7.30;;;;;;;;;;5129125;27;24405;-59
2022/01/27 14:43:01;;;;;;;7.83;6.80;;;;;;;;;;5128915;27;24935;-59
2022/01/27 14:45:26;;;;;;;9.23;7.63;;;;;;;;;;5129342;27;24987;-59
2022/01/27 14:47:55;;;;;;;7.88;6.90;;;;;;;;;;5129237;27;24397;-59